Time;durP1;ratioP1;P1;durP2;ratioP2;P2;SDS_P1;SDS_P2;PMS_P1;PMS_P2;Temp;Humidity;BMP_temperature;BMP_pressure;BME280_temperature;BME280_humidity;BME280_pressure;Samples;Min_cycle;Max_cycle;Signal;HPM_P1;HPM_P2
2022/05/13 00:01:08;;;;;;;;;11.67;11.00;;;;;16.86;70.58;100937.69;5055689;28;45462;-71
2022/05/13 00:03:35;;;;;;;;;11.33;11.00;;;;;16.86;70.85;100949.13;5054719;28;45436;-71
2022/05/13 00:06:01;;;;;;;;;12.00;11.33;;;;;16.78;70.96;100919.09;5052834;28;45432;-71
2022/05/13 00:08:27;;;;;;;;;12.33;12.33;;;;;16.92;70.80;100945.66;5055695;28;45560;-71
2022/05/13 00:10:53;;;;;;;;;11.00;10.00;;;;;16.86;70.40;100933.28;5062760;28;45541;-71
2022/05/13 00:13:18;;;;;;;;;13.33;10.33;;;;;16.89;70.84;100933.34;5055662;28;45526;-71
2022/05/13 00:15:44;;;;;;;;;11.00;10.00;;;;;16.84;70.68;100928.88;5055140;28;45456;-71
2022/05/13 00:18:10;;;;;;;;;11.50;10.50;;;;;16.96;70.73;100949.22;5056375;28;45403;-71
2022/05/13 00:20:36;;;;;;;;;12.33;11.33;;;;;16.96;70.91;100942.19;5057231;28;45473;-71
2022/05/13 00:23:02;;;;;;;;;9.33;9.33;;;;;16.98;70.87;100943.09;5057193;28;45587;-71
2022/05/13 00:25:32;;;;;;;;;11.00;10.33;;;;;16.89;70.55;100925.41;5057283;28;45540;-71
2022/05/13 00:27:59;;;;;;;;;10.00;10.00;;;;;17.02;70.60;100944.88;5057510;28;45292;-71
2022/05/13 00:30:26;;;;;;;;;9.33;9.33;;;;;17.03;70.55;100943.13;5056145;28;45547;-71
2022/05/13 00:32:52;;;;;;;;;10.67;10.00;;;;;16.95;70.43;100921.97;5057129;28;45325;-71
2022/05/13 00:35:19;;;;;;;;;10.00;9.33;;;;;17.06;70.42;100937.88;5056856;28;46118;-71
2022/05/13 00:37:45;;;;;;;;;7.33;6.67;;;;;17.04;70.25;100932.59;5060595;28;45255;-71
2022/05/13 00:40:12;;;;;;;;;10.33;10.00;;;;;16.98;70.18;100915.81;5060682;28;45351;-71
2022/05/13 00:42:38;;;;;;;;;10.67;10.67;;;;;16.97;70.53;100922.84;5060751;28;45221;-71
2022/05/13 00:45:05;;;;;;;;;10.33;10.00;;;;;16.96;70.53;100922.84;5060359;28;45912;-71
2022/05/13 00:47:31;;;;;;;;;11.00;11.00;;;;;16.94;70.41;100922.81;5060285;28;45323;-71
2022/05/13 00:49:59;;;;;;;;;10.00;10.00;;;;;16.94;70.32;100927.22;5060587;28;45472;-71
2022/05/13 00:52:27;;;;;;;;;12.00;11.00;;;;;16.85;70.67;100905.16;5060725;28;45527;-70
2022/05/13 00:54:53;;;;;;;;;9.33;9.33;;;;;16.87;70.56;100903.41;5060152;28;46233;-71
2022/05/13 00:57:21;;;;;;;;;9.33;8.33;;;;;16.88;70.48;100901.66;5060137;28;45438;-70
2022/05/13 00:59:49;;;;;;;;;10.67;10.33;;;;;16.75;70.87;100871.59;5060208;28;45217;-71
2022/05/13 01:02:15;;;;;;;;;10.33;9.00;;;;;16.45;70.98;100809.75;5060193;28;45465;-71
2022/05/13 01:04:41;;;;;;;;;12.50;11.00;;;;;16.94;70.77;100899.06;5060026;28;46194;-71
2022/05/13 01:07:17;;;;;;;;;14.00;12.00;;;;;16.97;70.97;100900.84;5059736;28;45365;-71
2022/05/13 01:09:56;;;;;;;;;13.67;13.33;;;;;16.93;71.26;100893.75;5059857;28;45405;-70
2022/05/13 01:12:27;;;;;;;;;13.00;12.00;;;;;16.93;71.14;100891.13;5060244;28;45440;-71
2022/05/13 01:14:58;;;;;;;;;11.33;11.33;;;;;16.87;70.98;100873.47;5059895;28;46001;-71
2022/05/13 01:20:14;;;;;;;;;13.50;12.00;;;;;16.95;71.42;100873.53;5059984;28;45548;-71
2022/05/13 01:22:47;;;;;;;;;12.75;12.00;;;;;16.87;71.34;100863.81;5058515;28;45516;-71
2022/05/13 01:25:17;;;;;;;;;11.33;10.67;;;;;16.96;71.20;100880.59;5059674;28;46279;-71
2022/05/13 01:27:46;;;;;;;;;13.67;11.33;;;;;16.98;71.17;100876.22;5058401;28;45241;-71
2022/05/13 01:30:16;;;;;;;;;12.50;11.25;;;;;16.86;71.08;100855.88;5059850;28;45294;-71
2022/05/13 01:32:41;;;;;;;;;12.33;12.00;;;;;16.94;71.31;100866.53;5060036;28;45464;-71
2022/05/13 01:35:07;;;;;;;;;10.50;9.75;;;;;17.01;70.99;100879.78;5059544;28;45495;-71
2022/05/13 01:37:34;;;;;;;;;16.00;13.75;;;;;17.00;70.77;100871.84;5059538;28;45492;-71
2022/05/13 01:40:01;;;;;;;;;12.00;11.67;;;;;16.98;71.12;100874.47;5059954;28;45449;-71
2022/05/13 01:42:28;;;;;;;;;14.00;11.00;;;;;16.84;71.30;100857.63;5059444;28;45302;-71
2022/05/13 01:44:54;;;;;;;;;12.00;12.00;;;;;16.95;71.24;100878.81;5059283;28;46154;-70
2022/05/13 01:47:20;;;;;;;;;11.00;10.67;;;;;17.05;71.15;100891.22;5058278;28;45483;-71
2022/05/13 01:49:45;;;;;;;;;11.00;10.67;;;;;17.10;70.78;100892.16;5059454;28;45365;-71
2022/05/13 01:52:11;;;;;;;;;9.00;9.00;;;;;17.02;70.47;100870.09;5059368;28;45523;-71
2022/05/13 01:54:36;;;;;;;;;11.00;9.67;;;;;17.12;70.92;100887.78;5059087;28;45939;-71
2022/05/13 01:57:03;;;;;;;;;11.67;11.33;;;;;17.17;70.79;100895.72;5059337;28;45310;-71
2022/05/13 01:59:29;;;;;;;;;11.00;11.00;;;;;17.18;70.62;100900.16;5059452;28;45283;-71
2022/05/13 02:01:54;;;;;;;;;14.00;12.00;;;;;17.20;70.45;100899.28;5058074;28;45580;-71
2022/05/13 02:04:20;;;;;;;;;13.75;12.75;;;;;17.20;70.73;100898.41;5059092;28;45469;-71
2022/05/13 02:06:46;;;;;;;;;13.33;12.33;;;;;17.17;70.85;100887.81;5059230;28;45471;-71
2022/05/13 02:09:11;;;;;;;;;10.75;9.00;;;;;17.18;70.88;100884.31;5059334;28;45379;-71
2022/05/13 02:11:37;;;;;;;;;11.00;10.00;;;;;17.23;70.71;100899.34;5059307;28;45437;-71
2022/05/13 02:14:04;;;;;;;;;11.67;9.67;;;;;17.23;70.68;100906.34;5059159;28;46165;-71
2022/05/13 02:16:29;;;;;;;;;11.25;11.25;;;;;17.20;70.82;100903.69;5059241;28;45599;-71
2022/05/13 02:18:55;;;;;;;;;11.00;11.00;;;;;17.21;70.57;100909.00;5058984;28;45441;-71
2022/05/13 02:21:21;;;;;;;;;12.33;12.00;;;;;17.21;70.58;100898.44;5059199;28;45513;-71
2022/05/13 02:23:47;;;;;;;;;9.67;9.67;;;;;17.20;70.65;100896.66;5058896;28;45369;-71
2022/05/13 02:26:13;;;;;;;;;9.67;9.33;;;;;17.22;70.79;100900.19;5058763;28;45350;-71
2022/05/13 02:28:39;;;;;;;;;9.67;9.67;;;;;17.15;71.09;100882.53;5057576;28;45164;-71
2022/05/13 02:31:06;;;;;;;;;6.33;6.33;;;;;17.20;71.05;100891.38;5058913;28;45157;-71
2022/05/13 02:33:32;;;;;;;;;11.33;11.00;;;;;17.02;70.85;100857.78;5058846;28;45740;-71
2022/05/13 02:36:00;;;;;;;;;10.67;10.33;;;;;17.18;71.04;100890.47;5058539;28;45381;-71
2022/05/13 02:38:27;;;;;;;;;9.33;8.67;;;;;17.17;71.09;100895.72;5058851;28;45417;-71
2022/05/13 02:43:37;;;;;;;;;8.00;8.00;;;;;17.15;70.75;100901.03;5058403;28;45354;-71
2022/05/13 02:46:03;;;;;;;;;13.00;12.00;;;;;17.04;70.91;100881.56;5058883;28;45521;-71
2022/05/13 02:48:29;;;;;;;;;12.00;11.33;;;;;17.07;70.98;100881.59;5058460;28;45360;-71
2022/05/13 02:50:54;;;;;;;;;11.33;9.33;;;;;17.07;70.88;100885.13;5058721;28;45427;-71
2022/05/13 02:53:20;;;;;;;;;11.00;10.33;;;;;17.07;71.08;100879.84;5058460;28;46031;-71
2022/05/13 02:55:46;;;;;;;;;12.67;10.67;;;;;17.01;71.75;100871.88;5058359;28;45771;-71
2022/05/13 02:58:11;;;;;;;;;12.67;10.67;;;;;17.05;71.62;100868.38;5058435;28;45646;-71
2022/05/13 03:00:37;;;;;;;;;12.00;11.67;;;;;17.16;71.85;100888.69;5057098;28;45523;-71
2022/05/13 03:03:05;;;;;;;;;8.67;7.67;;;;;17.15;72.32;100892.19;5058174;28;45399;-71
2022/05/13 03:05:32;;;;;;;;;10.33;10.33;;;;;17.15;72.25;100893.09;5058078;28;45579;-71
2022/05/13 03:08:01;;;;;;;;;10.00;9.50;;;;;17.00;72.06;100863.94;5058357;28;46065;-71
2022/05/13 03:10:28;;;;;;;;;11.00;10.33;;;;;17.04;72.64;100871.88;5058493;28;45364;-71
2022/05/13 03:12:54;;;;;;;;;11.33;11.33;;;;;17.13;72.62;100888.66;5057932;28;45982;-71
2022/05/13 03:15:19;;;;;;;;;11.67;10.67;;;;;16.94;72.38;100859.47;5057855;28;45629;-71
2022/05/13 03:17:45;;;;;;;;;11.33;11.00;;;;;17.01;72.82;100881.50;5058123;28;45535;-70
2022/05/13 03:20:17;;;;;;;;;11.67;10.67;;;;;17.05;73.05;100892.13;5058217;28;45517;-71
2022/05/13 03:22:44;;;;;;;;;11.33;11.00;;;;;16.85;72.54;100872.56;5057871;28;45865;-71
2022/05/13 03:25:10;;;;;;;;;15.00;15.00;;;;;16.99;72.58;100892.09;5057822;28;45478;-71
2022/05/13 03:27:36;;;;;;;;;13.00;12.00;;;;;16.96;73.56;100896.44;5057904;28;45287;-77
2022/05/13 03:30:04;;;;;;;;;12.75;12.25;;;;;16.89;73.18;100891.09;5053576;28;45180;-71
2022/05/13 03:32:30;;;;;;;;;13.25;11.50;;;;;16.85;72.96;100889.31;5056068;28;45388;-71
2022/05/13 03:34:56;;;;;;;;;13.75;12.00;;;;;16.95;73.96;100906.13;5056092;28;45450;-71
2022/05/13 03:37:21;;;;;;;;;11.67;11.00;;;;;16.88;74.09;100891.09;5056248;28;45461;-71
2022/05/13 03:39:47;;;;;;;;;13.00;13.00;;;;;16.90;74.38;100897.25;5056238;28;45403;-70
2022/05/13 03:42:12;;;;;;;;;13.00;12.00;;;;;17.00;74.26;100916.72;5054364;28;45598;-71
2022/05/13 03:44:38;;;;;;;;;12.00;11.00;;;;;16.98;74.18;100910.53;5055967;28;45326;-75
2022/05/13 03:47:04;;;;;;;;;11.00;10.33;;;;;17.00;74.33;100916.72;5056324;28;45292;-71
2022/05/13 03:49:30;;;;;;;;;10.00;9.00;;;;;17.01;74.22;100915.81;5056096;28;45387;-71
2022/05/13 03:51:56;;;;;;;;;14.67;12.67;;;;;16.98;73.90;100919.34;5055395;28;46043;-71
2022/05/13 03:54:21;;;;;;;;;11.00;11.00;;;;;16.95;74.55;100911.41;5055698;28;45450;-71
2022/05/13 03:56:47;;;;;;;;;11.00;10.00;;;;;16.75;74.46;100881.25;5055825;28;45378;-71
2022/05/13 03:59:12;;;;;;;;;10.67;10.67;;;;;16.89;74.40;100906.94;5055967;28;45602;-71
2022/05/13 04:01:38;;;;;;;;;12.33;11.67;;;;;16.96;74.68;100915.78;5055570;28;45492;-71
2022/05/13 04:04:04;;;;;;;;;11.00;11.00;;;;;16.95;74.69;100911.41;5054554;28;45461;-71
2022/05/13 04:09:14;;;;;;;;;13.00;12.00;;;;;16.89;74.71;100903.41;5055928;28;45344;-78
2022/05/13 04:11:42;;;;;;;;;13.75;12.00;;;;;16.96;74.91;100909.63;5054678;28;45409;-71
2022/05/13 04:16:55;;;;;;;;;11.33;11.33;;;;;16.84;74.76;100899.84;5054524;28;45491;-79
2022/05/13 04:19:21;;;;;;;;;13.00;11.50;;;;;16.96;74.72;100912.28;5055720;27;45675;-79
2022/05/13 04:21:47;;;;;;;;;10.25;10.00;;;;;16.84;74.66;100895.44;5055117;28;46342;-71
2022/05/13 04:24:18;;;;;;;;;10.00;10.00;;;;;16.89;73.95;100906.03;5053811;28;45557;-70
2022/05/13 04:26:44;;;;;;;;;12.00;12.00;;;;;16.82;74.61;100913.00;5052921;28;45453;-71
2022/05/13 04:29:10;;;;;;;;;15.00;15.00;;;;;16.78;75.09;100903.28;5055246;28;45342;-71
2022/05/13 04:31:39;;;;;;;;;15.00;13.00;;;;;16.81;75.23;100908.63;5055442;28;46175;-71
2022/05/13 04:34:06;;;;;;;;;14.25;12.75;;;;;16.82;75.62;100914.78;5053168;28;45546;-71
2022/05/13 04:36:32;;;;;;;;;11.67;11.33;;;;;16.83;74.97;100922.72;5055278;28;45338;-70
2022/05/13 04:38:58;;;;;;;;;12.00;11.33;;;;;16.82;74.94;100913.00;5055390;28;45612;-71
2022/05/13 04:44:11;;;;;;;;;12.33;12.00;;;;;16.83;75.22;100917.44;5055128;28;45478;-71
2022/05/13 04:46:37;;;;;;;;;13.00;12.25;;;;;16.83;75.63;100925.34;5055260;28;45409;-70
2022/05/13 04:49:04;;;;;;;;;13.00;11.00;;;;;16.81;75.55;100913.91;5052556;28;45288;-70
2022/05/13 04:51:30;;;;;;;;;12.00;12.00;;;;;16.70;75.05;100894.41;5054694;28;45464;-71
2022/05/13 04:53:57;;;;;;;;;12.67;12.33;;;;;16.72;74.65;100895.28;5054902;28;45499;-71
2022/05/13 04:56:24;;;;;;;;;11.33;11.00;;;;;16.69;75.26;100896.16;5054991;28;45416;-71
2022/05/13 04:58:49;;;;;;;;;13.50;13.25;;;;;16.81;76.14;100919.19;5055106;28;45579;-71
2022/05/13 05:01:18;;;;;;;;;13.00;12.00;;;;;16.83;75.81;100919.16;5054714;28;45384;-71
2022/05/13 05:03:44;;;;;;;;;11.33;10.67;;;;;16.84;75.58;100911.28;5052368;28;45345;-71
2022/05/13 05:06:12;;;;;;;;;10.50;10.00;;;;;16.88;75.45;100921.00;5055036;28;45441;-71
2022/05/13 05:08:38;;;;;;;;;11.00;11.00;;;;;16.89;75.48;100922.78;5055091;28;45461;-70
2022/05/13 05:11:07;;;;;;;;;11.33;10.00;;;;;16.90;75.00;100927.16;5052307;28;45516;-71
2022/05/13 05:13:36;;;;;;;;;11.33;11.00;;;;;16.90;74.55;100924.53;5054506;28;45571;-70
2022/05/13 05:16:02;;;;;;;;;10.67;10.00;;;;;16.91;74.80;100928.06;5054561;28;45459;-71
2022/05/13 05:18:28;;;;;;;;;12.00;11.67;;;;;16.93;74.94;100931.63;5053638;28;45830;-71
2022/05/13 05:20:54;;;;;;;;;12.00;11.00;;;;;16.82;74.97;100915.66;5054578;28;45500;-71
2022/05/13 05:23:22;;;;;;;;;14.00;13.00;;;;;16.94;74.94;100943.91;5055999;28;45373;-70
2022/05/13 05:25:48;;;;;;;;;13.33;12.67;;;;;16.95;75.30;100936.88;5058168;28;45334;-71
2022/05/13 05:28:14;;;;;;;;;14.00;13.00;;;;;16.90;74.34;100939.47;5058291;28;45371;-71
2022/05/13 05:30:41;;;;;;;;;14.00;13.50;;;;;16.86;74.61;100937.69;5057835;28;45357;-71
2022/05/13 05:33:07;;;;;;;;;14.33;14.33;;;;;16.81;75.03;100945.56;5056730;28;45533;-71
2022/05/13 05:35:33;;;;;;;;;16.67;15.00;;;;;16.83;75.58;100945.56;5057965;28;45435;-70
2022/05/13 05:37:59;;;;;;;;;14.00;13.33;;;;;16.85;76.06;100950.00;5058231;28;46298;-70
2022/05/13 05:40:25;;;;;;;;;14.00;14.00;;;;;16.79;75.34;100925.25;5057748;28;45453;-71
2022/05/13 05:42:50;;;;;;;;;12.33;11.33;;;;;16.92;75.26;100942.16;5057446;28;45436;-71
2022/05/13 05:45:18;;;;;;;;;14.67;14.33;;;;;16.93;75.33;100935.97;5057542;28;45431;-71
2022/05/13 05:47:44;;;;;;;;;14.67;14.33;;;;;16.96;75.60;100944.81;5055338;28;45199;-71
2022/05/13 05:50:16;;;;;;;;;13.33;13.00;;;;;17.01;75.29;100942.22;5057386;28;45459;-71
2022/05/13 05:52:42;;;;;;;;;12.33;12.33;;;;;17.03;74.42;100943.13;5056226;28;45262;-71
2022/05/13 05:58:06;;;;;;;;;12.00;10.67;;;;;17.10;74.57;100952.88;5057542;28;45320;-71
2022/05/13 06:00:34;;;;;;;;;12.00;10.67;;;;;17.16;74.19;100946.78;5061019;28;45527;-75
2022/05/13 06:03:00;;;;;;;;;10.00;10.00;;;;;17.08;73.76;100930.88;5060526;28;45540;-72
2022/05/13 06:05:26;;;;;;;;;11.00;10.75;;;;;17.02;73.62;100933.44;5058936;28;45313;-72
2022/05/13 06:07:56;;;;;;;;;15.33;15.00;;;;;17.14;74.53;100951.16;5059482;28;45333;-71
2022/05/13 06:10:22;;;;;;;;;13.00;12.00;;;;;17.18;73.79;100945.03;5058726;28;46058;-72
2022/05/13 06:12:48;;;;;;;;;14.00;12.00;;;;;17.04;73.66;100918.50;5074317;28;45403;-71
2022/05/13 06:15:14;;;;;;;;;10.33;10.00;;;;;17.17;74.13;100938.88;5058727;28;45413;-72
2022/05/13 06:17:51;;;;;;;;;15.00;14.00;;;;;17.30;73.67;100943.38;5059277;28;45539;-72
2022/05/13 06:20:20;;;;;;;;;15.00;12.00;;;;;17.19;73.09;100934.50;5058869;28;45520;-72
2022/05/13 06:22:46;;;;;;;;;13.67;13.67;;;;;17.31;73.80;100952.22;5054676;28;45563;-72
2022/05/13 06:25:15;;;;;;;;;10.00;9.25;;;;;17.35;73.86;100950.44;5060846;28;45503;-73
2022/05/13 06:27:41;;;;;;;;;10.33;9.67;;;;;17.41;73.33;100945.25;5056858;28;45558;-73
2022/05/13 06:30:09;;;;;;;;;10.00;9.67;;;;;17.24;72.89;100903.72;5057747;28;45988;-72
2022/05/13 06:32:35;;;;;;;;;10.00;9.33;;;;;17.45;72.87;100929.44;5056685;28;45401;-73
2022/05/13 06:35:01;;;;;;;;;11.00;10.33;;;;;17.56;72.68;100941.84;5035830;28;45328;-73
2022/05/13 06:37:27;;;;;;;;;8.33;7.00;;;;;17.66;72.93;100947.19;5021835;28;45675;-72
2022/05/13 06:39:52;;;;;;;;;9.67;9.00;;;;;17.68;72.71;100948.06;5036230;28;47179;-73
2022/05/13 06:42:18;;;;;;;;;9.67;8.33;;;;;17.72;72.52;100951.63;5037423;28;45380;-72
2022/05/13 06:44:43;;;;;;;;;8.00;7.33;;;;;17.73;72.02;100947.25;5037579;28;45481;-73
2022/05/13 06:47:09;;;;;;;;;9.00;6.67;;;;;17.76;72.07;100936.69;5037673;28;45422;-82
2022/05/13 06:49:35;;;;;;;;;8.00;7.00;;;;;17.83;71.40;100944.72;5037291;28;47697;-83
2022/05/13 06:52:03;;;;;;;;;7.67;7.67;;;;;17.97;70.85;100951.84;5039140;28;45677;-74
2022/05/13 06:54:31;;;;;;;;;7.67;7.00;;;;;17.90;70.77;100932.41;5056747;28;45735;-73
2022/05/13 06:56:57;;;;;;;;;9.67;8.33;;;;;17.92;70.30;100928.00;5056774;28;45963;-75
2022/05/13 06:59:23;;;;;;;;;7.00;7.00;;;;;18.03;70.49;100939.53;5063480;28;45602;-74
2022/05/13 07:01:49;;;;;;;;;15.50;15.50;;;;;18.07;71.28;100932.53;5056109;28;45912;-73
2022/05/13 07:04:15;;;;;;;;;9.67;9.67;;;;;18.20;71.03;100944.03;5056438;28;45568;-72
2022/05/13 07:06:41;;;;;;;;;9.67;9.67;;;;;18.32;70.78;100946.72;5056667;28;45595;-71
2022/05/13 07:09:07;;;;;;;;;13.67;8.00;;;;;18.40;70.43;100949.41;5054909;28;46118;-72
2022/05/13 07:11:33;;;;;;;;;11.33;9.33;;;;;18.52;70.30;100953.88;5055140;28;45739;-72
2022/05/13 07:13:59;;;;;;;;;9.33;8.33;;;;;18.58;70.18;100948.59;5056253;28;45381;-72
2022/05/13 07:16:25;;;;;;;;;9.33;9.33;;;;;18.58;69.98;100927.44;5063099;28;45485;-73
2022/05/13 07:18:50;;;;;;;;;8.67;7.33;;;;;18.71;69.79;100928.38;5055755;28;46005;-72
2022/05/13 07:21:16;;;;;;;;;8.67;7.67;;;;;18.73;69.31;100929.25;5055680;28;45413;-72
2022/05/13 07:23:42;;;;;;;;;10.67;9.33;;;;;18.92;69.62;100959.31;5055326;28;45379;-72
2022/05/13 07:26:09;;;;;;;;;9.67;9.00;;;;;18.85;69.49;100937.25;5056211;28;45599;-73
2022/05/13 07:28:36;;;;;;;;;8.67;8.67;;;;;18.98;69.46;100952.28;5055955;28;46183;-74
2022/05/13 07:31:01;;;;;;;;;8.00;8.00;;;;;19.01;69.12;100943.47;5056249;28;45405;-73
2022/05/13 07:33:31;;;;;;;;;10.33;9.00;;;;;18.94;68.58;100923.13;5055838;28;45379;-73
2022/05/13 07:35:56;;;;;;;;;11.33;11.33;;;;;19.19;68.51;100959.34;5056092;28;45514;-79
2022/05/13 07:38:22;;;;;;;;;9.67;8.67;;;;;19.25;68.69;100956.72;5056278;28;45966;-74
2022/05/13 07:43:32;;;;;;;;;8.00;7.33;;;;;19.45;68.06;100959.38;5056430;28;45478;-74
2022/05/13 07:45:58;;;;;;;;;8.00;7.33;;;;;19.54;67.95;100958.50;5055355;28;45430;-74
2022/05/13 07:48:24;;;;;;;;;8.00;7.00;;;;;19.66;67.25;100952.31;5055529;28;45319;-74
2022/05/13 07:50:51;;;;;;;;;8.00;7.67;;;;;19.83;66.74;100958.50;5056438;28;45391;-74
2022/05/13 07:53:18;;;;;;;;;6.67;6.33;;;;;19.87;66.20;100932.84;5056358;28;45425;-74
2022/05/13 07:55:43;;;;;;;;;7.00;6.33;;;;;20.03;65.68;100931.97;5057722;28;45516;-74
2022/05/13 07:58:09;;;;;;;;;9.00;7.00;;;;;20.29;64.78;100930.09;5057272;28;45508;-74
2022/05/13 08:00:36;;;;;;;;;6.00;6.00;;;;;20.56;64.67;100955.63;5057164;28;45327;-74
2022/05/13 08:03:13;;;;;;;;;7.00;6.33;;;;;20.61;64.15;100949.44;5055337;28;45326;-74
2022/05/13 08:05:43;;;;;;;;;9.00;6.67;;;;;20.72;63.87;100962.66;5055513;28;45263;-73
2022/05/13 08:08:12;;;;;;;;;7.00;6.00;;;;;20.73;63.65;100969.75;5056941;28;45900;-74
2022/05/13 08:10:39;;;;;;;;;7.00;7.00;;;;;20.66;63.68;100942.34;5056971;28;45435;-74
2022/05/13 08:13:05;;;;;;;;;7.00;7.00;;;;;20.83;62.40;100958.19;5055934;28;45453;-74
2022/05/13 08:15:31;;;;;;;;;6.67;6.00;;;;;20.80;62.45;100931.63;5056997;28;45272;-74
2022/05/13 08:17:57;;;;;;;;;7.00;6.33;;;;;20.95;62.17;100928.00;5056839;28;45441;-74
2022/05/13 08:20:23;;;;;;;;;8.67;8.00;;;;;21.18;61.57;100946.44;5072540;28;45327;-74
2022/05/13 08:22:49;;;;;;;;;7.33;7.33;;;;;21.30;61.17;100949.91;5055435;28;45572;-75
2022/05/13 08:25:15;;;;;;;;;8.67;8.00;;;;;21.20;60.68;100939.31;5057636;28;45485;-74
2022/05/13 08:27:41;;;;;;;;;8.00;8.00;;;;;21.22;60.75;100937.53;5057067;28;45277;-74
2022/05/13 08:30:07;;;;;;;;;8.00;8.00;;;;;21.35;60.83;100953.41;5056558;28;45489;-74
2022/05/13 08:32:34;;;;;;;;;10.00;9.00;;;;;21.38;60.69;100942.75;5056941;28;45412;-75
2022/05/13 08:34:59;;;;;;;;;10.00;8.00;;;;;21.52;60.19;100945.31;5056887;28;45487;-74
2022/05/13 08:37:25;;;;;;;;;8.00;6.33;;;;;21.60;60.62;100940.81;5056740;28;45572;-74
2022/05/13 08:39:51;;;;;;;;;8.00;8.00;;;;;21.58;60.75;100929.31;5056877;28;45318;-74
2022/05/13 08:42:40;;;;;;;;;7.33;7.00;;;;;21.65;60.21;100923.91;5056854;28;45494;-75
2022/05/13 08:45:08;;;;;;;;;7.00;5.33;;;;;21.84;59.78;100935.28;5056840;28;45168;-74
2022/05/13 08:47:49;;;;;;;;;6.33;6.00;;;;;21.96;59.90;100936.88;5056183;28;45390;-75
2022/05/13 08:50:37;;;;;;;;;8.00;6.67;;;;;22.16;59.16;100939.34;5056438;28;45466;-74
2022/05/13 08:53:50;;;;;;;;;6.33;6.00;;;;;22.42;58.78;100935.50;5056613;28;45536;-74
2022/05/13 08:56:25;;;;;;;;;7.67;7.00;;;;;22.63;58.01;100934.34;5044613;28;45279;-74
2022/05/13 08:59:05;;;;;;;;;6.00;6.00;;;;;22.70;57.63;100930.72;5075365;28;46402;-74
2022/05/13 09:01:36;;;;;;;;;6.00;5.00;;;;;22.81;57.95;100934.09;5058265;28;45592;-74
2022/05/13 09:04:28;;;;;;;;;9.00;8.00;;;;;22.43;56.29;100860.09;5059717;28;45438;-74
2022/05/13 09:07:01;;;;;;;;;7.33;6.67;;;;;22.75;57.02;100906.66;5039631;28;45644;-75
2022/05/13 09:09:28;;;;;;;;;8.00;6.00;;;;;22.88;56.78;100934.91;5059693;28;45383;-74
2022/05/13 09:12:18;;;;;;;;;7.33;7.00;;;;;23.03;55.53;100939.13;5059712;28;45505;-74
2022/05/13 09:14:45;;;;;;;;;5.67;5.00;;;;;23.11;55.97;100942.56;5059978;28;45432;-74
2022/05/13 09:17:37;;;;;;;;;8.00;6.33;;;;;23.13;55.50;100915.88;5059960;28;45337;-74
2022/05/13 09:20:19;;;;;;;;;8.00;5.33;;;;;23.37;54.40;100906.59;5060053;28;46110;-74
2022/05/13 09:22:58;;;;;;;;;7.00;7.00;;;;;23.53;54.63;100909.88;5059655;28;45173;-74
2022/05/13 09:25:48;;;;;;;;;6.67;6.67;;;;;23.77;54.31;100917.44;5059810;28;45900;-74
2022/05/13 09:28:15;;;;;;;;;8.00;7.33;;;;;24.03;53.90;100918.75;5075632;28;45445;-74
2022/05/13 09:30:43;;;;;;;;;6.00;5.67;;;;;24.13;54.09;100914.09;5059142;28;46222;-74
2022/05/13 09:33:26;;;;;;;;;7.33;6.00;;;;;23.72;53.40;100838.41;5057827;28;45836;-74
2022/05/13 09:35:57;;;;;;;;;4.00;4.00;;;;;24.20;51.93;100918.41;5059369;28;45499;-74
2022/05/13 09:38:26;;;;;;;;;5.00;4.67;;;;;24.14;52.03;100906.06;5059362;28;45514;-74
2022/05/13 09:41:03;;;;;;;;;6.00;6.00;;;;;24.35;52.53;100928.78;5058968;28;45449;-75
2022/05/13 09:43:43;;;;;;;;;7.00;5.00;;;;;24.45;51.85;100932.13;5059084;28;45239;-74
2022/05/13 09:46:32;;;;;;;;;5.33;5.00;;;;;24.56;51.71;100934.59;5058928;28;45429;-74
2022/05/13 09:49:01;;;;;;;;;6.00;6.00;;;;;24.59;51.35;100935.44;5059308;28;45576;-74
2022/05/13 09:51:35;;;;;;;;;3.33;3.33;;;;;24.73;51.02;100937.78;5058751;28;45437;-74
2022/05/13 09:54:28;;;;;;;;;6.00;5.00;;;;;24.67;51.52;100931.69;5059048;28;45427;-75
2022/05/13 09:57:05;;;;;;;;;7.00;7.00;;;;;24.46;51.84;100939.22;5059097;28;45483;-74
2022/05/13 09:59:55;;;;;;;;;5.67;5.00;;;;;24.26;51.67;100923.63;5058990;28;45930;-74
2022/05/13 10:02:24;;;;;;;;;7.00;7.00;;;;;24.16;51.56;100930.06;5058829;28;45483;-74
2022/05/13 10:04:53;;;;;;;;;8.00;8.00;;;;;24.16;51.27;100933.63;5057944;28;45466;-74
2022/05/13 10:07:22;;;;;;;;;6.00;6.00;;;;;24.16;50.99;100936.28;5059106;28;45493;-75
2022/05/13 10:15:38;;;;;;;;;4.00;2.33;;;;;24.46;51.13;100938.34;5060298;28;45247;-75
2022/05/13 10:18:22;;;;;;;;;6.00;5.67;;;;;24.64;50.20;100924.63;5058875;28;45260;-75
2022/05/13 10:20:52;;;;;;;;;5.33;4.67;;;;;24.89;49.85;100918.72;5059065;28;45374;-75
2022/05/13 10:23:30;;;;;;;;;4.67;4.00;;;;;25.13;49.05;100914.59;5059471;28;45320;-75
2022/05/13 10:26:00;;;;;;;;;4.33;4.00;;;;;25.39;47.79;100917.53;5060251;28;45220;-74
2022/05/13 10:28:55;;;;;;;;;5.67;5.67;;;;;25.75;47.53;100921.94;5058293;28;45473;-75
2022/05/13 10:31:25;;;;;;;;;4.00;4.00;;;;;26.04;46.83;100914.94;5049055;28;45566;-74
2022/05/13 10:33:50;;;;;;;;;5.00;4.67;;;;;26.23;46.04;100912.63;5058654;28;45592;-75
2022/05/13 10:36:31;;;;;;;;;3.33;3.00;;;;;26.26;46.31;100908.06;5073943;28;45558;-75
2022/05/13 10:39:07;;;;;;;;;4.00;3.67;;;;;26.12;45.47;100910.22;5057014;28;45490;-75
2022/05/13 10:41:43;;;;;;;;;6.33;6.33;;;;;26.11;46.34;100897.78;5058560;28;45888;-75
2022/05/13 10:44:16;;;;;;;;;4.00;4.00;;;;;26.14;45.65;100900.34;5058051;28;45624;-75
2022/05/13 10:47:00;;;;;;;;;4.00;3.67;;;;;26.34;45.56;100905.13;5057107;28;45444;-75
2022/05/13 10:49:34;;;;;;;;;4.00;3.00;;;;;26.51;44.98;100896.59;5056806;28;45233;-75
2022/05/13 10:52:09;;;;;;;;;3.00;3.00;;;;;26.72;44.00;100900.41;5057901;28;45488;-75
2022/05/13 10:55:06;;;;;;;;;4.00;4.00;;;;;26.69;43.47;100900.53;5057416;28;45375;-75
2022/05/13 10:57:49;;;;;;;;;4.00;4.00;;;;;26.61;43.64;100899.91;5049852;28;45527;-75
2022/05/13 11:00:19;;;;;;;;;5.00;2.67;;;;;26.60;44.03;100882.97;5057610;28;45453;-75
2022/05/13 11:02:50;;;;;;;;;3.00;3.00;;;;;26.69;43.33;100893.38;5073523;28;45693;-75
2022/05/13 11:05:25;;;;;;;;;3.00;3.00;;;;;26.90;43.21;100896.28;5057791;28;46616;-74
2022/05/13 11:08:06;;;;;;;;;3.00;3.00;;;;;27.10;42.56;100884.94;5058021;28;45410;-75
2022/05/13 11:10:48;;;;;;;;;3.33;3.33;;;;;27.18;42.01;100881.06;5057460;28;45542;-76
2022/05/13 11:13:31;;;;;;;;;3.00;3.00;;;;;27.49;42.71;100880.00;5057947;28;45241;-75
2022/05/13 11:16:17;;;;;;;;;5.67;5.00;;;;;27.75;41.95;100883.56;5057368;28;46098;-75
2022/05/13 11:19:02;;;;;;;;;3.33;3.00;;;;;28.05;41.61;100878.03;5057259;28;45484;-75
2022/05/13 11:21:43;;;;;;;;;5.00;5.00;;;;;27.86;41.42;100881.38;5056372;28;45307;-75
2022/05/13 11:27:09;;;;;;;;;4.00;4.00;;;;;28.31;40.74;100869.91;5057241;28;45837;-75
2022/05/13 11:29:59;;;;;;;;;6.67;6.00;;;;;28.44;40.91;100853.28;5057398;28;45459;-76
2022/05/13 11:32:31;;;;;;;;;3.00;3.00;;;;;28.73;40.38;100862.91;5056231;28;45466;-75
2022/05/13 11:35:08;;;;;;;;;4.33;4.00;;;;;28.58;40.03;100852.78;5057527;28;45543;-76
2022/05/13 11:37:40;;;;;;;;;3.33;3.33;;;;;28.29;40.11;100839.53;5056902;28;45421;-74
2022/05/13 11:40:47;;;;;;;;;4.33;4.33;;;;;27.85;41.01;100844.72;5057335;28;45232;-75
2022/05/13 11:43:25;;;;;;;;;5.33;4.33;;;;;27.91;40.32;100839.19;5054036;28;45480;-75
2022/05/13 11:46:33;;;;;;;;;4.33;4.33;;;;;28.09;40.90;100831.34;5057107;28;45421;-76
2022/05/13 11:49:10;;;;;;;;;4.00;4.00;;;;;27.73;41.07;100797.72;5072549;28;46301;-76
2022/05/13 11:51:38;;;;;;;;;4.00;4.00;;;;;27.80;41.44;100817.19;5056689;28;45501;-75
2022/05/13 11:54:04;;;;;;;;;7.00;5.67;;;;;28.05;41.30;100822.53;5056686;28;45418;-75
2022/05/13 11:56:33;;;;;;;;;6.33;5.00;;;;;27.60;41.43;100820.63;5056796;28;45401;-75